sensor_id;sensor_type;location;lat;lon;timestamp;P1;durP1;ratioP1;P2;durP2;ratioP2
53618;SDS011;68717;53.040;18.488;2023-05-10T00:00:00;8.13;;;3.85;;
53618;SDS011;68717;53.040;18.488;2023-05-10T00:00:13;9.32;;;4.00;;
53618;SDS011;68717;53.040;18.488;2023-05-10T00:00:47;9.18;;;3.70;;
53618;SDS011;68717;53.040;18.488;2023-05-10T00:01:00;8.52;;;3.90;;
53618;SDS011;68717;53.040;18.488;2023-05-10T00:01:13;9.45;;;4.07;;
53618;SDS011;68717;53.040;18.488;2023-05-10T00:01:25;10.65;;;4.30;;
53618;SDS011;68717;53.040;18.488;2023-05-10T00:01:38;10.85;;;4.20;;
53618;SDS011;68717;53.040;18.488;2023-05-10T00:01:51;10.15;;;4.00;;
53618;SDS011;68717;53.040;18.488;2023-05-10T00:02:04;10.27;;;3.95;;
53618;SDS011;68717;53.040;18.488;2023-05-10T00:02:16;9.85;;;4.03;;
53618;SDS011;68717;53.040;18.488;2023-05-10T00:02:30;9.15;;;3.85;;
53618;SDS011;68717;53.040;18.488;2023-05-10T00:02:43;10.35;;;3.75;;
53618;SDS011;68717;53.040;18.488;2023-05-10T00:02:56;11.02;;;4.18;;
53618;SDS011;68717;53.040;18.488;2023-05-10T00:03:08;10.18;;;4.32;;
53618;SDS011;68717;53.040;18.488;2023-05-10T00:03:21;10.05;;;4.53;;
53618;SDS011;68717;53.040;18.488;2023-05-10T00:03:34;9.50;;;4.00;;
53618;SDS011;68717;53.040;18.488;2023-05-10T00:03:48;8.25;;;3.78;;
53618;SDS011;68717;53.040;18.488;2023-05-10T00:04:00;8.43;;;3.90;;
53618;SDS011;68717;53.040;18.488;2023-05-10T00:04:13;9.40;;;3.75;;
53618;SDS011;68717;53.040;18.488;2023-05-10T00:04:26;9.88;;;3.70;;
53618;SDS011;68717;53.040;18.488;2023-05-10T00:04:39;9.32;;;3.75;;
53618;SDS011;68717;53.040;18.488;2023-05-10T00:04:51;9.20;;;3.80;;
53618;SDS011;68717;53.040;18.488;2023-05-10T00:05:04;9.25;;;3.88;;
53618;SDS011;68717;53.040;18.488;2023-05-10T00:05:18;8.30;;;3.70;;
53618;SDS011;68717;53.040;18.488;2023-05-10T00:05:31;8.80;;;3.80;;
53618;SDS011;68717;53.040;18.488;2023-05-10T00:05:44;9.38;;;3.85;;
53618;SDS011;68717;53.040;18.488;2023-05-10T00:05:56;9.18;;;4.00;;
53618;SDS011;68717;53.040;18.488;2023-05-10T00:06:10;10.15;;;4.10;;
53618;SDS011;68717;53.040;18.488;2023-05-10T00:06:22;10.05;;;4.05;;
53618;SDS011;68717;53.040;18.488;2023-05-10T00:06:36;10.43;;;4.13;;
53618;SDS011;68717;53.040;18.488;2023-05-10T00:06:48;10.85;;;4.45;;
53618;SDS011;68717;53.040;18.488;2023-05-10T00:07:01;10.77;;;4.30;;
53618;SDS011;68717;53.040;18.488;2023-05-10T00:07:14;8.88;;;3.88;;
53618;SDS011;68717;53.040;18.488;2023-05-10T00:07:29;9.32;;;3.83;;
53618;SDS011;68717;53.040;18.488;2023-05-10T00:07:41;9.07;;;3.83;;
53618;SDS011;68717;53.040;18.488;2023-05-10T00:07:56;8.48;;;3.88;;
53618;SDS011;68717;53.040;18.488;2023-05-10T00:08:11;8.48;;;4.13;;
53618;SDS011;68717;53.040;18.488;2023-05-10T00:08:24;8.95;;;4.00;;
53618;SDS011;68717;53.040;18.488;2023-05-10T00:08:36;9.77;;;3.90;;
53618;SDS011;68717;53.040;18.488;2023-05-10T00:08:49;9.07;;;3.92;;
53618;SDS011;68717;53.040;18.488;2023-05-10T00:09:01;8.88;;;3.90;;
53618;SDS011;68717;53.040;18.488;2023-05-10T00:09:15;8.02;;;3.78;;
53618;SDS011;68717;53.040;18.488;2023-05-10T00:09:29;8.63;;;3.75;;
53618;SDS011;68717;53.040;18.488;2023-05-10T00:09:41;8.32;;;3.72;;
53618;SDS011;68717;53.040;18.488;2023-05-10T00:09:54;8.52;;;4.05;;
53618;SDS011;68717;53.040;18.488;2023-05-10T00:10:06;9.00;;;3.97;;
53618;SDS011;68717;53.040;18.488;2023-05-10T00:10:19;8.60;;;3.97;;
53618;SDS011;68717;53.040;18.488;2023-05-10T00:10:32;8.45;;;3.90;;
53618;SDS011;68717;53.040;18.488;2023-05-10T00:10:44;8.25;;;3.85;;
53618;SDS011;68717;53.040;18.488;2023-05-10T00:10:58;8.40;;;3.88;;
53618;SDS011;68717;53.040;18.488;2023-05-10T00:11:10;9.15;;;3.70;;
53618;SDS011;68717;53.040;18.488;2023-05-10T00:11:23;10.18;;;3.90;;
53618;SDS011;68717;53.040;18.488;2023-05-10T00:11:36;10.27;;;4.00;;
53618;SDS011;68717;53.040;18.488;2023-05-10T00:11:48;9.57;;;3.83;;
53618;SDS011;68717;53.040;18.488;2023-05-10T00:12:01;9.73;;;3.78;;
53618;SDS011;68717;53.040;18.488;2023-05-10T00:12:13;8.70;;;3.90;;
53618;SDS011;68717;53.040;18.488;2023-05-10T00:12:27;8.20;;;3.85;;
53618;SDS011;68717;53.040;18.488;2023-05-10T00:12:39;8.65;;;3.92;;
53618;SDS011;68717;53.040;18.488;2023-05-10T00:12:52;9.10;;;4.10;;
53618;SDS011;68717;53.040;18.488;2023-05-10T00:13:05;8.77;;;3.97;;
53618;SDS011;68717;53.040;18.488;2023-05-10T00:13:18;7.38;;;3.55;;
53618;SDS011;68717;53.040;18.488;2023-05-10T00:13:30;6.93;;;3.33;;
53618;SDS011;68717;53.040;18.488;2023-05-10T00:13:44;8.48;;;3.47;;
53618;SDS011;68717;53.040;18.488;2023-05-10T00:13:56;9.38;;;3.70;;
53618;SDS011;68717;53.040;18.488;2023-05-10T00:14:09;9.50;;;3.72;;
53618;SDS011;68717;53.040;18.488;2023-05-10T00:14:22;8.80;;;3.80;;
53618;SDS011;68717;53.040;18.488;2023-05-10T00:14:34;8.77;;;4.00;;
53618;SDS011;68717;53.040;18.488;2023-05-10T00:14:47;8.60;;;4.03;;
53618;SDS011;68717;53.040;18.488;2023-05-10T00:14:59;8.10;;;3.97;;
53618;SDS011;68717;53.040;18.488;2023-05-10T00:15:13;8.02;;;3.90;;
53618;SDS011;68717;53.040;18.488;2023-05-10T00:15:26;8.85;;;4.00;;
53618;SDS011;68717;53.040;18.488;2023-05-10T00:15:38;9.23;;;3.80;;
53618;SDS011;68717;53.040;18.488;2023-05-10T00:15:51;9.27;;;3.72;;
53618;SDS011;68717;53.040;18.488;2023-05-10T00:16:04;9.32;;;3.88;;
53618;SDS011;68717;53.040;18.488;2023-05-10T00:16:18;11.10;;;3.90;;
53618;SDS011;68717;53.040;18.488;2023-05-10T00:16:30;10.23;;;3.85;;
53618;SDS011;68717;53.040;18.488;2023-05-10T00:16:44;8.18;;;3.83;;
53618;SDS011;68717;53.040;18.488;2023-05-10T00:16:57;10.88;;;3.78;;
53618;SDS011;68717;53.040;18.488;2023-05-10T00:17:10;10.90;;;3.90;;
53618;SDS011;68717;53.040;18.488;2023-05-10T00:17:22;9.70;;;3.83;;
53618;SDS011;68717;53.040;18.488;2023-05-10T00:17:35;8.93;;;3.90;;
53618;SDS011;68717;53.040;18.488;2023-05-10T00:17:48;8.93;;;3.90;;
53618;SDS011;68717;53.040;18.488;2023-05-10T00:18:00;8.57;;;3.80;;
53618;SDS011;68717;53.040;18.488;2023-05-10T00:18:13;8.90;;;4.00;;
53618;SDS011;68717;53.040;18.488;2023-05-10T00:18:26;8.82;;;4.03;;
53618;SDS011;68717;53.040;18.488;2023-05-10T00:18:39;8.88;;;3.92;;
53618;SDS011;68717;53.040;18.488;2023-05-10T00:18:51;9.13;;;4.10;;
53618;SDS011;68717;53.040;18.488;2023-05-10T00:19:04;8.68;;;4.25;;
53618;SDS011;68717;53.040;18.488;2023-05-10T00:19:16;8.32;;;3.95;;
53618;SDS011;68717;53.040;18.488;2023-05-10T00:19:29;10.27;;;3.83;;
53618;SDS011;68717;53.040;18.488;2023-05-10T00:19:42;10.55;;;3.80;;
53618;SDS011;68717;53.040;18.488;2023-05-10T00:19:55;9.02;;;3.72;;
53618;SDS011;68717;53.040;18.488;2023-05-10T00:20:08;9.07;;;3.70;;
53618;SDS011;68717;53.040;18.488;2023-05-10T00:20:22;8.35;;;3.80;;
53618;SDS011;68717;53.040;18.488;2023-05-10T00:20:34;7.90;;;3.88;;
53618;SDS011;68717;53.040;18.488;2023-05-10T00:20:47;8.70;;;3.83;;
53618;SDS011;68717;53.040;18.488;2023-05-10T00:21:00;10.30;;;3.80;;
53618;SDS011;68717;53.040;18.488;2023-05-10T00:21:14;11.88;;;3.90;;
53618;SDS011;68717;53.040;18.488;2023-05-10T00:21:27;12.20;;;3.85;;
53618;SDS011;68717;53.040;18.488;2023-05-10T00:21:40;11.68;;;3.95;;
53618;SDS011;68717;53.040;18.488;2023-05-10T00:21:53;11.75;;;3.88;;
53618;SDS011;68717;53.040;18.488;2023-05-10T00:22:06;9.20;;;3.60;;
53618;SDS011;68717;53.040;18.488;2023-05-10T00:22:18;7.97;;;3.70;;
53618;SDS011;68717;53.040;18.488;2023-05-10T00:22:31;9.43;;;3.90;;
53618;SDS011;68717;53.040;18.488;2023-05-10T00:22:44;9.18;;;3.72;;
53618;SDS011;68717;53.040;18.488;2023-05-10T00:22:57;7.78;;;3.40;;
53618;SDS011;68717;53.040;18.488;2023-05-10T00:23:11;7.13;;;3.35;;
53618;SDS011;68717;53.040;18.488;2023-05-10T00:23:24;10.25;;;3.70;;
53618;SDS011;68717;53.040;18.488;2023-05-10T00:23:36;10.35;;;3.70;;
53618;SDS011;68717;53.040;18.488;2023-05-10T00:23:49;8.55;;;3.53;;
53618;SDS011;68717;53.040;18.488;2023-05-10T00:24:02;7.35;;;3.55;;
53618;SDS011;68717;53.040;18.488;2023-05-10T00:24:15;8.38;;;3.88;;
53618;SDS011;68717;53.040;18.488;2023-05-10T00:24:28;8.85;;;4.20;;
53618;SDS011;68717;53.040;18.488;2023-05-10T00:24:41;8.57;;;4.03;;
53618;SDS011;68717;53.040;18.488;2023-05-10T00:24:54;8.98;;;3.63;;
53618;SDS011;68717;53.040;18.488;2023-05-10T00:25:07;10.65;;;3.60;;
53618;SDS011;68717;53.040;18.488;2023-05-10T00:25:21;10.60;;;3.72;;
53618;SDS011;68717;53.040;18.488;2023-05-10T00:25:33;9.18;;;3.80;;
53618;SDS011;68717;53.040;18.488;2023-05-10T00:25:46;8.00;;;3.70;;
53618;SDS011;68717;53.040;18.488;2023-05-10T00:25:58;8.32;;;3.63;;
53618;SDS011;68717;53.040;18.488;2023-05-10T00:26:12;10.43;;;3.90;;
53618;SDS011;68717;53.040;18.488;2023-05-10T00:26:25;10.18;;;3.83;;
53618;SDS011;68717;53.040;18.488;2023-05-10T00:26:37;9.15;;;3.97;;
53618;SDS011;68717;53.040;18.488;2023-05-10T00:26:50;8.25;;;4.00;;
53618;SDS011;68717;53.040;18.488;2023-05-10T00:27:02;7.82;;;3.83;;
53618;SDS011;68717;53.040;18.488;2023-05-10T00:27:16;7.90;;;3.72;;
53618;SDS011;68717;53.040;18.488;2023-05-10T00:27:28;7.70;;;3.60;;
53618;SDS011;68717;53.040;18.488;2023-05-10T00:27:42;8.68;;;3.60;;
53618;SDS011;68717;53.040;18.488;2023-05-10T00:27:54;9.20;;;3.60;;
53618;SDS011;68717;53.040;18.488;2023-05-10T00:28:07;9.13;;;3.63;;
53618;SDS011;68717;53.040;18.488;2023-05-10T00:28:20;7.53;;;3.70;;
53618;SDS011;68717;53.040;18.488;2023-05-10T00:28:32;8.32;;;4.05;;
53618;SDS011;68717;53.040;18.488;2023-05-10T00:28:45;8.68;;;4.00;;
53618;SDS011;68717;53.040;18.488;2023-05-10T00:28:58;8.57;;;3.80;;
53618;SDS011;68717;53.040;18.488;2023-05-10T00:29:11;8.15;;;3.78;;
53618;SDS011;68717;53.040;18.488;2023-05-10T00:29:24;7.60;;;3.80;;
53618;SDS011;68717;53.040;18.488;2023-05-10T00:29:36;8.02;;;3.88;;
53618;SDS011;68717;53.040;18.488;2023-05-10T00:29:49;7.80;;;3.80;;
53618;SDS011;68717;53.040;18.488;2023-05-10T00:30:02;8.90;;;4.00;;
53618;SDS011;68717;53.040;18.488;2023-05-10T00:30:14;8.82;;;3.95;;
53618;SDS011;68717;53.040;18.488;2023-05-10T00:30:28;7.85;;;3.70;;
53618;SDS011;68717;53.040;18.488;2023-05-10T00:30:41;7.72;;;3.97;;
53618;SDS011;68717;53.040;18.488;2023-05-10T00:30:53;7.65;;;4.10;;
53618;SDS011;68717;53.040;18.488;2023-05-10T00:31:07;7.80;;;4.30;;
53618;SDS011;68717;53.040;18.488;2023-05-10T00:31:19;8.32;;;4.10;;
53618;SDS011;68717;53.040;18.488;2023-05-10T00:31:32;8.15;;;3.90;;
53618;SDS011;68717;53.040;18.488;2023-05-10T00:31:45;8.25;;;3.67;;
53618;SDS011;68717;53.040;18.488;2023-05-10T00:31:58;8.77;;;3.80;;
53618;SDS011;68717;53.040;18.488;2023-05-10T00:32:11;9.30;;;3.88;;
53618;SDS011;68717;53.040;18.488;2023-05-10T00:32:26;9.23;;;3.88;;
53618;SDS011;68717;53.040;18.488;2023-05-10T00:32:38;8.98;;;3.80;;
53618;SDS011;68717;53.040;18.488;2023-05-10T00:32:51;8.23;;;3.88;;
53618;SDS011;68717;53.040;18.488;2023-05-10T00:33:03;7.35;;;3.90;;
53618;SDS011;68717;53.040;18.488;2023-05-10T00:33:17;8.60;;;3.95;;
53618;SDS011;68717;53.040;18.488;2023-05-10T00:33:30;9.32;;;3.95;;
53618;SDS011;68717;53.040;18.488;2023-05-10T00:33:42;9.73;;;3.97;;
53618;SDS011;68717;53.040;18.488;2023-05-10T00:33:55;9.68;;;3.90;;
53618;SDS011;68717;53.040;18.488;2023-05-10T00:34:07;9.45;;;3.90;;
53618;SDS011;68717;53.040;18.488;2023-05-10T00:34:20;8.57;;;3.92;;
53618;SDS011;68717;53.040;18.488;2023-05-10T00:34:33;10.10;;;4.07;;
53618;SDS011;68717;53.040;18.488;2023-05-10T00:34:46;11.18;;;3.92;;
53618;SDS011;68717;53.040;18.488;2023-05-10T00:34:58;10.30;;;3.70;;
53618;SDS011;68717;53.040;18.488;2023-05-10T00:35:11;8.38;;;3.70;;
53618;SDS011;68717;53.040;18.488;2023-05-10T00:35:24;8.07;;;3.78;;
53618;SDS011;68717;53.040;18.488;2023-05-10T00:35:37;7.82;;;3.80;;
53618;SDS011;68717;53.040;18.488;2023-05-10T00:35:49;8.15;;;3.70;;
53618;SDS011;68717;53.040;18.488;2023-05-10T00:36:02;9.02;;;3.70;;
53618;SDS011;68717;53.040;18.488;2023-05-10T00:36:15;9.32;;;3.80;;
53618;SDS011;68717;53.040;18.488;2023-05-10T00:36:29;9.57;;;3.80;;
53618;SDS011;68717;53.040;18.488;2023-05-10T00:36:41;7.75;;;3.63;;
53618;SDS011;68717;53.040;18.488;2023-05-10T00:36:54;7.35;;;3.50;;
53618;SDS011;68717;53.040;18.488;2023-05-10T00:37:06;8.85;;;3.55;;
53618;SDS011;68717;53.040;18.488;2023-05-10T00:37:19;8.98;;;3.65;;
53618;SDS011;68717;53.040;18.488;2023-05-10T00:37:31;8.23;;;3.80;;
53618;SDS011;68717;53.040;18.488;2023-05-10T00:37:44;7.60;;;3.88;;
53618;SDS011;68717;53.040;18.488;2023-05-10T00:37:57;8.93;;;3.97;;
53618;SDS011;68717;53.040;18.488;2023-05-10T00:38:11;9.40;;;4.00;;
53618;SDS011;68717;53.040;18.488;2023-05-10T00:38:24;8.27;;;4.00;;
53618;SDS011;68717;53.040;18.488;2023-05-10T00:38:37;8.32;;;3.95;;
53618;SDS011;68717;53.040;18.488;2023-05-10T00:38:50;8.77;;;3.85;;
53618;SDS011;68717;53.040;18.488;2023-05-10T00:39:02;8.93;;;3.70;;
53618;SDS011;68717;53.040;18.488;2023-05-10T00:39:15;8.82;;;3.70;;
53618;SDS011;68717;53.040;18.488;2023-05-10T00:39:29;7.70;;;3.70;;
53618;SDS011;68717;53.040;18.488;2023-05-10T00:39:41;7.45;;;3.80;;
53618;SDS011;68717;53.040;18.488;2023-05-10T00:39:54;7.63;;;3.72;;
53618;SDS011;68717;53.040;18.488;2023-05-10T00:40:07;8.02;;;3.75;;
53618;SDS011;68717;53.040;18.488;2023-05-10T00:40:20;9.43;;;4.03;;
53618;SDS011;68717;53.040;18.488;2023-05-10T00:40:32;9.73;;;4.10;;
53618;SDS011;68717;53.040;18.488;2023-05-10T00:40:48;8.60;;;4.00;;
53618;SDS011;68717;53.040;18.488;2023-05-10T00:41:00;7.50;;;3.80;;
53618;SDS011;68717;53.040;18.488;2023-05-10T00:41:13;8.15;;;3.70;;
53618;SDS011;68717;53.040;18.488;2023-05-10T00:41:25;8.38;;;3.80;;
53618;SDS011;68717;53.040;18.488;2023-05-10T00:41:38;8.35;;;3.90;;
53618;SDS011;68717;53.040;18.488;2023-05-10T00:41:51;7.80;;;3.80;;
53618;SDS011;68717;53.040;18.488;2023-05-10T00:42:03;8.38;;;3.70;;
53618;SDS011;68717;53.040;18.488;2023-05-10T00:42:16;9.23;;;3.72;;
53618;SDS011;68717;53.040;18.488;2023-05-10T00:42:30;9.23;;;3.85;;
53618;SDS011;68717;53.040;18.488;2023-05-10T00:42:42;9.75;;;3.83;;
53618;SDS011;68717;53.040;18.488;2023-05-10T00:42:55;9.60;;;3.85;;
53618;SDS011;68717;53.040;18.488;2023-05-10T00:43:07;8.88;;;3.80;;
53618;SDS011;68717;53.040;18.488;2023-05-10T00:43:20;9.02;;;3.63;;
53618;SDS011;68717;53.040;18.488;2023-05-10T00:43:32;8.52;;;3.65;;
53618;SDS011;68717;53.040;18.488;2023-05-10T00:43:45;8.50;;;3.70;;
53618;SDS011;68717;53.040;18.488;2023-05-10T00:43:59;9.23;;;3.92;;
53618;SDS011;68717;53.040;18.488;2023-05-10T00:44:11;11.18;;;4.03;;
53618;SDS011;68717;53.040;18.488;2023-05-10T00:44:24;11.13;;;4.00;;
53618;SDS011;68717;53.040;18.488;2023-05-10T00:44:36;8.88;;;3.83;;
53618;SDS011;68717;53.040;18.488;2023-05-10T00:44:49;8.48;;;3.72;;
53618;SDS011;68717;53.040;18.488;2023-05-10T00:45:02;8.57;;;3.70;;
53618;SDS011;68717;53.040;18.488;2023-05-10T00:45:14;7.63;;;3.65;;
53618;SDS011;68717;53.040;18.488;2023-05-10T00:45:27;7.55;;;3.80;;
53618;SDS011;68717;53.040;18.488;2023-05-10T00:45:41;8.48;;;3.97;;
53618;SDS011;68717;53.040;18.488;2023-05-10T00:45:54;10.13;;;4.03;;
53618;SDS011;68717;53.040;18.488;2023-05-10T00:46:07;9.50;;;4.03;;
53618;SDS011;68717;53.040;18.488;2023-05-10T00:46:19;9.00;;;3.92;;
53618;SDS011;68717;53.040;18.488;2023-05-10T00:46:33;9.05;;;3.92;;
53618;SDS011;68717;53.040;18.488;2023-05-10T00:46:46;9.30;;;3.92;;
53618;SDS011;68717;53.040;18.488;2023-05-10T00:46:59;9.18;;;3.70;;
53618;SDS011;68717;53.040;18.488;2023-05-10T00:47:12;10.30;;;3.80;;
53618;SDS011;68717;53.040;18.488;2023-05-10T00:47:26;9.00;;;3.80;;
53618;SDS011;68717;53.040;18.488;2023-05-10T00:47:39;8.40;;;3.75;;
53618;SDS011;68717;53.040;18.488;2023-05-10T00:47:52;7.60;;;3.75;;
53618;SDS011;68717;53.040;18.488;2023-05-10T00:48:07;9.10;;;3.90;;
53618;SDS011;68717;53.040;18.488;2023-05-10T00:48:20;9.10;;;3.85;;
53618;SDS011;68717;53.040;18.488;2023-05-10T00:48:33;7.95;;;3.92;;
53618;SDS011;68717;53.040;18.488;2023-05-10T00:48:46;7.88;;;4.10;;
53618;SDS011;68717;53.040;18.488;2023-05-10T00:49:00;9.07;;;4.20;;
53618;SDS011;68717;53.040;18.488;2023-05-10T00:49:13;9.38;;;3.90;;
53618;SDS011;68717;53.040;18.488;2023-05-10T00:49:26;8.55;;;3.85;;
53618;SDS011;68717;53.040;18.488;2023-05-10T00:49:38;7.30;;;3.70;;
53618;SDS011;68717;53.040;18.488;2023-05-10T00:49:52;8.07;;;3.70;;
53618;SDS011;68717;53.040;18.488;2023-05-10T00:50:06;8.73;;;3.90;;
53618;SDS011;68717;53.040;18.488;2023-05-10T00:50:19;8.05;;;4.00;;
53618;SDS011;68717;53.040;18.488;2023-05-10T00:50:32;8.23;;;3.75;;
53618;SDS011;68717;53.040;18.488;2023-05-10T00:50:45;7.85;;;3.65;;
53618;SDS011;68717;53.040;18.488;2023-05-10T00:50:58;7.03;;;3.60;;
53618;SDS011;68717;53.040;18.488;2023-05-10T00:51:11;7.22;;;3.63;;
53618;SDS011;68717;53.040;18.488;2023-05-10T00:51:24;8.30;;;3.70;;
53618;SDS011;68717;53.040;18.488;2023-05-10T00:51:37;8.45;;;3.80;;
53618;SDS011;68717;53.040;18.488;2023-05-10T00:51:49;8.68;;;3.80;;
53618;SDS011;68717;53.040;18.488;2023-05-10T00:52:03;9.35;;;3.90;;
53618;SDS011;68717;53.040;18.488;2023-05-10T00:52:16;9.43;;;3.88;;
53618;SDS011;68717;53.040;18.488;2023-05-10T00:52:28;9.10;;;3.97;;
53618;SDS011;68717;53.040;18.488;2023-05-10T00:52:42;9.25;;;3.80;;
53618;SDS011;68717;53.040;18.488;2023-05-10T00:52:55;11.40;;;3.78;;
53618;SDS011;68717;53.040;18.488;2023-05-10T00:53:07;12.32;;;3.83;;
53618;SDS011;68717;53.040;18.488;2023-05-10T00:53:23;9.32;;;3.90;;
53618;SDS011;68717;53.040;18.488;2023-05-10T00:53:36;8.90;;;3.80;;
53618;SDS011;68717;53.040;18.488;2023-05-10T00:53:49;8.98;;;3.80;;
53618;SDS011;68717;53.040;18.488;2023-05-10T00:54:03;7.55;;;3.80;;
53618;SDS011;68717;53.040;18.488;2023-05-10T00:54:16;8.05;;;3.72;;
53618;SDS011;68717;53.040;18.488;2023-05-10T00:54:28;8.52;;;3.67;;
53618;SDS011;68717;53.040;18.488;2023-05-10T00:54:42;7.85;;;3.50;;
53618;SDS011;68717;53.040;18.488;2023-05-10T00:54:55;7.70;;;3.55;;
53618;SDS011;68717;53.040;18.488;2023-05-10T00:55:09;7.65;;;3.80;;
53618;SDS011;68717;53.040;18.488;2023-05-10T00:55:21;7.75;;;3.83;;
53618;SDS011;68717;53.040;18.488;2023-05-10T00:55:34;7.80;;;3.90;;
53618;SDS011;68717;53.040;18.488;2023-05-10T00:55:47;7.60;;;4.00;;
53618;SDS011;68717;53.040;18.488;2023-05-10T00:56:00;7.38;;;3.90;;
53618;SDS011;68717;53.040;18.488;2023-05-10T00:56:15;6.78;;;3.70;;
53618;SDS011;68717;53.040;18.488;2023-05-10T00:56:27;6.50;;;3.58;;
53618;SDS011;68717;53.040;18.488;2023-05-10T00:56:41;6.47;;;3.53;;
53618;SDS011;68717;53.040;18.488;2023-05-10T00:56:55;7.55;;;3.85;;
53618;SDS011;68717;53.040;18.488;2023-05-10T00:57:08;8.05;;;3.92;;
53618;SDS011;68717;53.040;18.488;2023-05-10T00:57:22;7.75;;;3.85;;
53618;SDS011;68717;53.040;18.488;2023-05-10T00:57:36;7.82;;;3.75;;
53618;SDS011;68717;53.040;18.488;2023-05-10T00:57:48;8.32;;;3.80;;
53618;SDS011;68717;53.040;18.488;2023-05-10T00:58:01;8.73;;;3.80;;
53618;SDS011;68717;53.040;18.488;2023-05-10T00:58:14;8.73;;;3.70;;
53618;SDS011;68717;53.040;18.488;2023-05-10T00:58:27;9.02;;;3.85;;
53618;SDS011;68717;53.040;18.488;2023-05-10T00:58:40;10.27;;;3.97;;
53618;SDS011;68717;53.040;18.488;2023-05-10T00:58:53;9.95;;;3.72;;
53618;SDS011;68717;53.040;18.488;2023-05-10T00:59:06;9.07;;;3.65;;
53618;SDS011;68717;53.040;18.488;2023-05-10T00:59:20;7.43;;;3.80;;
53618;SDS011;68717;53.040;18.488;2023-05-10T00:59:33;8.50;;;3.83;;
53618;SDS011;68717;53.040;18.488;2023-05-10T00:59:46;9.02;;;3.90;;
53618;SDS011;68717;53.040;18.488;2023-05-10T00:59:58;10.28;;;3.92;;
53618;SDS011;68717;53.040;18.488;2023-05-10T01:00:12;10.13;;;3.90;;
53618;SDS011;68717;53.040;18.488;2023-05-10T01:00:29;7.88;;;3.67;;
53618;SDS011;68717;53.040;18.488;2023-05-10T01:00:43;8.52;;;3.50;;
53618;SDS011;68717;53.040;18.488;2023-05-10T01:00:58;9.52;;;3.55;;
53618;SDS011;68717;53.040;18.488;2023-05-10T01:01:12;8.88;;;3.65;;
53618;SDS011;68717;53.040;18.488;2023-05-10T01:01:25;8.88;;;3.67;;
53618;SDS011;68717;53.040;18.488;2023-05-10T01:01:38;9.85;;;3.53;;
53618;SDS011;68717;53.040;18.488;2023-05-10T01:01:51;9.55;;;3.70;;
53618;SDS011;68717;53.040;18.488;2023-05-10T01:02:04;7.82;;;3.67;;
53618;SDS011;68717;53.040;18.488;2023-05-10T01:02:18;7.55;;;3.72;;
53618;SDS011;68717;53.040;18.488;2023-05-10T01:02:33;7.97;;;3.80;;
53618;SDS011;68717;53.040;18.488;2023-05-10T01:02:46;9.18;;;3.97;;
53618;SDS011;68717;53.040;18.488;2023-05-10T01:02:59;9.65;;;4.15;;
53618;SDS011;68717;53.040;18.488;2023-05-10T01:03:12;9.27;;;4.07;;
53618;SDS011;68717;53.040;18.488;2023-05-10T01:03:25;8.95;;;4.13;;
53618;SDS011;68717;53.040;18.488;2023-05-10T01:03:37;7.57;;;4.00;;
53618;SDS011;68717;53.040;18.488;2023-05-10T01:03:52;8.70;;;3.78;;
53618;SDS011;68717;53.040;18.488;2023-05-10T01:04:06;9.00;;;3.72;;
53618;SDS011;68717;53.040;18.488;2023-05-10T01:04:18;8.82;;;3.70;;
53618;SDS011;68717;53.040;18.488;2023-05-10T01:04:33;9.02;;;3.85;;
53618;SDS011;68717;53.040;18.488;2023-05-10T01:04:47;8.27;;;3.95;;
53618;SDS011;68717;53.040;18.488;2023-05-10T01:05:01;8.27;;;4.05;;
53618;SDS011;68717;53.040;18.488;2023-05-10T01:05:15;8.73;;;3.88;;
53618;SDS011;68717;53.040;18.488;2023-05-10T01:05:28;8.52;;;3.60;;
53618;SDS011;68717;53.040;18.488;2023-05-10T01:05:42;7.18;;;3.70;;
53618;SDS011;68717;53.040;18.488;2023-05-10T01:05:54;7.47;;;3.80;;
53618;SDS011;68717;53.040;18.488;2023-05-10T01:06:07;8.25;;;3.83;;
53618;SDS011;68717;53.040;18.488;2023-05-10T01:06:21;9.10;;;3.85;;
53618;SDS011;68717;53.040;18.488;2023-05-10T01:06:34;11.60;;;3.70;;
53618;SDS011;68717;53.040;18.488;2023-05-10T01:06:46;10.35;;;3.47;;
53618;SDS011;68717;53.040;18.488;2023-05-10T01:06:59;7.88;;;3.80;;
53618;SDS011;68717;53.040;18.488;2023-05-10T01:07:13;8.70;;;4.00;;
53618;SDS011;68717;53.040;18.488;2023-05-10T01:07:25;8.65;;;3.88;;
53618;SDS011;68717;53.040;18.488;2023-05-10T01:07:38;8.07;;;3.70;;
53618;SDS011;68717;53.040;18.488;2023-05-10T01:07:50;8.35;;;3.78;;
53618;SDS011;68717;53.040;18.488;2023-05-10T01:08:03;8.70;;;3.83;;
53618;SDS011;68717;53.040;18.488;2023-05-10T01:08:16;10.20;;;3.90;;
53618;SDS011;68717;53.040;18.488;2023-05-10T01:08:31;9.65;;;4.00;;
53618;SDS011;68717;53.040;18.488;2023-05-10T01:08:44;9.40;;;3.90;;
53618;SDS011;68717;53.040;18.488;2023-05-10T01:08:57;9.07;;;3.75;;
53618;SDS011;68717;53.040;18.488;2023-05-10T01:09:10;9.13;;;3.72;;
53618;SDS011;68717;53.040;18.488;2023-05-10T01:09:24;10.18;;;3.67;;
53618;SDS011;68717;53.040;18.488;2023-05-10T01:09:38;10.98;;;3.60;;
53618;SDS011;68717;53.040;18.488;2023-05-10T01:09:51;10.10;;;3.72;;
53618;SDS011;68717;53.040;18.488;2023-05-10T01:10:05;7.50;;;3.70;;
53618;SDS011;68717;53.040;18.488;2023-05-10T01:10:18;8.23;;;3.90;;
53618;SDS011;68717;53.040;18.488;2023-05-10T01:10:31;8.70;;;3.90;;
53618;SDS011;68717;53.040;18.488;2023-05-10T01:10:44;8.98;;;3.95;;
53618;SDS011;68717;53.040;18.488;2023-05-10T01:10:57;8.68;;;3.78;;
53618;SDS011;68717;53.040;18.488;2023-05-10T01:11:10;8.55;;;3.78;;
53618;SDS011;68717;53.040;18.488;2023-05-10T01:11:23;8.00;;;3.80;;
53618;SDS011;68717;53.040;18.488;2023-05-10T01:11:37;7.30;;;3.63;;
53618;SDS011;68717;53.040;18.488;2023-05-10T01:11:51;6.85;;;3.60;;
53618;SDS011;68717;53.040;18.488;2023-05-10T01:12:05;7.15;;;3.70;;
53618;SDS011;68717;53.040;18.488;2023-05-10T01:12:19;7.43;;;3.75;;
53618;SDS011;68717;53.040;18.488;2023-05-10T01:12:32;7.60;;;4.03;;
53618;SDS011;68717;53.040;18.488;2023-05-10T01:12:46;8.98;;;4.30;;
53618;SDS011;68717;53.040;18.488;2023-05-10T01:13:00;9.52;;;4.18;;
53618;SDS011;68717;53.040;18.488;2023-05-10T01:13:14;9.35;;;4.10;;
53618;SDS011;68717;53.040;18.488;2023-05-10T01:13:40;9.02;;;4.13;;
53618;SDS011;68717;53.040;18.488;2023-05-10T01:13:55;9.23;;;4.07;;
53618;SDS011;68717;53.040;18.488;2023-05-10T01:14:09;8.70;;;4.00;;
53618;SDS011;68717;53.040;18.488;2023-05-10T01:14:22;8.82;;;4.00;;
53618;SDS011;68717;53.040;18.488;2023-05-10T01:14:36;9.15;;;4.00;;
53618;SDS011;68717;53.040;18.488;2023-05-10T01:14:48;9.32;;;4.00;;
53618;SDS011;68717;53.040;18.488;2023-05-10T01:15:01;8.25;;;4.05;;
53618;SDS011;68717;53.040;18.488;2023-05-10T01:15:14;7.72;;;3.97;;
53618;SDS011;68717;53.040;18.488;2023-05-10T01:15:28;8.65;;;4.00;;
53618;SDS011;68717;53.040;18.488;2023-05-10T01:15:42;9.90;;;3.90;;
53618;SDS011;68717;53.040;18.488;2023-05-10T01:15:55;10.18;;;3.80;;
53618;SDS011;68717;53.040;18.488;2023-05-10T01:16:08;10.00;;;3.80;;
53618;SDS011;68717;53.040;18.488;2023-05-10T01:16:22;8.63;;;3.80;;
53618;SDS011;68717;53.040;18.488;2023-05-10T01:16:36;8.27;;;3.80;;
53618;SDS011;68717;53.040;18.488;2023-05-10T01:16:50;8.55;;;3.70;;
53618;SDS011;68717;53.040;18.488;2023-05-10T01:17:05;9.35;;;3.88;;
53618;SDS011;68717;53.040;18.488;2023-05-10T01:17:19;9.38;;;4.00;;
53618;SDS011;68717;53.040;18.488;2023-05-10T01:17:32;9.98;;;4.05;;
53618;SDS011;68717;53.040;18.488;2023-05-10T01:17:46;9.85;;;4.00;;
53618;SDS011;68717;53.040;18.488;2023-05-10T01:18:01;9.68;;;3.97;;